Time;durP1;ratioP1;P1;durP2;ratioP2;P2;SDS_P1;SDS_P2;PMS_P1;PMS_P2;Temp;Humidity;BMP_temperature;BMP_pressure;BME280_temperature;BME280_humidity;BME280_pressure;Samples;Min_cycle;Max_cycle;Signal;HPM_P1;HPM_P2
2023/10/14 00:00:26;;;;;;;;;;;;;;;-140.72;100.00;60607.16;5066660;28;19956;-70
2023/10/14 00:02:52;;;;;;;;;;;;;;;-140.72;100.00;60607.16;5066019;28;19920;-70
2023/10/14 00:05:19;;;;;;;;;;;;;;;-140.72;100.00;60594.94;5066743;28;19920;-71
2023/10/14 00:07:45;;;;;;;;;;;;;;;-140.72;100.00;60586.81;5074477;28;19920;-69
2023/10/14 00:10:10;;;;;;;;;;;;;;;-140.72;100.00;60574.63;5070144;28;19927;-69
2023/10/14 00:12:37;;;;;;;;;;;;;;;-140.72;100.00;60548.19;5068421;28;20021;-70
2023/10/14 00:15:05;;;;;;;;;;;;;;;-140.72;100.00;60462.78;5072679;28;19921;-69
2023/10/14 00:17:35;;;;;;;;;;;;;;;-140.72;100.00;60477.00;5065669;28;20295;-69
2023/10/14 00:20:00;;;;;;;;;;;;;;;-140.72;100.00;60456.69;5073371;28;19974;-70
2023/10/14 00:22:26;;;;;;;;;;;;;;;-140.72;100.00;60438.38;5072249;28;19924;-69
2023/10/14 00:24:52;;;;;;;;;;;;;;;-140.72;100.00;60355.03;5068134;28;19920;-69
2023/10/14 00:27:17;;;;;;;;;;;;;;;-140.72;100.00;60326.56;5072487;28;20443;-69
2023/10/14 00:29:42;;;;;;;;;;;;;;;-140.72;100.00;60320.47;5072305;28;20406;-69
2023/10/14 00:32:08;;;;;;;;;;;;;;;-140.72;100.00;60300.13;5070396;28;19927;-69
2023/10/14 00:34:33;;;;;;;;;;;;;;;-140.72;100.00;60245.22;5074411;28;19920;-69
2023/10/14 00:36:58;;;;;;;;;;;;;;;-140.72;100.00;60237.09;5071942;28;19927;-69
2023/10/14 00:39:26;;;;;;;;;;;;;;;-140.72;100.00;60210.66;5067133;28;20003;-69
2023/10/14 00:41:52;;;;;;;;;;;;;;;-140.72;100.00;60192.38;5074209;28;19927;-69
2023/10/14 00:44:18;;;;;;;;;;;;;;;-140.72;100.00;60165.94;5067868;28;19988;-69
2023/10/14 00:46:48;;;;;;;;;;;;;;;-140.72;100.00;60145.59;5062590;28;19921;-69
2023/10/14 00:49:14;;;;;;;;;;;;;;;-140.72;100.00;60074.44;5068028;28;19920;-69
2023/10/14 00:51:44;;;;;;;;;;;;;;;-140.72;100.00;60021.59;5072970;28;19926;-70
2023/10/14 00:54:11;;;;;;;;;;;;;;;-140.72;100.00;60015.50;5069613;28;19920;-70
2023/10/14 00:56:40;;;;;;;;;;;;;;;-140.72;100.00;60003.28;5070752;28;19943;-70
2023/10/14 00:59:08;;;;;;;;;;;;;;;-140.72;100.00;59940.28;5070886;28;19927;-69
2023/10/14 01:01:50;;;;;;;;;;;;;;;-140.72;100.00;59907.75;5073117;28;19946;-69
2023/10/14 01:04:31;;;;;;;;;;;;;;;-140.72;100.00;59806.09;5072205;28;19925;-69
2023/10/14 01:07:12;;;;;;;;;;;;;;;-140.72;100.00;59787.81;5066464;28;19982;-70
2023/10/14 01:12:37;;;;;;;;;;;;;;;-140.72;100.00;59663.78;5069279;28;19959;-70
2023/10/14 01:15:10;;;;;;;;;;;;;;;-140.72;100.00;59669.91;5068511;28;19920;-69
2023/10/14 01:17:36;;;;;;;;;;;;;;;-140.72;100.00;59604.84;5061308;28;19920;-70
2023/10/14 01:22:43;;;;;;;;;;;;;;;-140.72;100.00;59521.50;5068681;28;19959;-70
2023/10/14 01:25:13;;;;;;;;;;;;;;;-140.72;100.00;59466.63;5071254;28;19966;-70
2023/10/14 01:27:42;;;;;;;;;;;;;;;-140.72;100.00;59440.19;5069102;28;19930;-70
2023/10/14 01:30:11;;;;;;;;;;;;;;;-140.72;100.00;59444.25;5067844;28;19920;-71
2023/10/14 01:35:02;;;;;;;;;;;;;;;-140.72;100.00;59401.56;5068801;28;19926;-71
2023/10/14 01:37:35;;;;;;;;;;;;;;;-140.72;100.00;59419.88;5073882;28;19924;-70
2023/10/14 01:40:17;;;;;;;;;;;;;;;-140.72;100.00;59401.56;5072380;28;19972;-70
2023/10/14 01:42:42;;;;;;;;;;;;;;;-140.72;100.00;59417.84;5062718;28;20455;-70
2023/10/14 01:45:20;;;;;;;;;;;;;;;-140.72;100.00;59364.97;5074851;28;19921;-70
2023/10/14 01:47:57;;;;;;;;;;;;;;;-140.72;100.00;59332.47;5072003;28;19925;-70
2023/10/14 01:50:22;;;;;;;;;;;;;;;-140.72;100.00;59194.25;5071167;28;19921;-70
2023/10/14 01:52:52;;;;;;;;;;;;;;;-140.72;100.00;59167.81;5065010;28;19927;-70
2023/10/14 01:55:20;;;;;;;;;;;;;;;-140.72;100.00;59127.16;5071753;28;19932;-70
2023/10/14 01:57:46;;;;;;;;;;;;;;;-140.72;100.00;59104.81;5067939;28;20044;-70
2023/10/14 02:00:37;;;;;;;;;;;;;;;-140.72;100.00;59072.28;5059801;28;20267;-70
2023/10/14 02:03:02;;;;;;;;;;;;;;;-140.72;100.00;58995.03;5067479;28;19920;-70
2023/10/14 02:05:28;;;;;;;;;;;;;;;-140.72;100.00;58885.28;5070083;28;19998;-70
2023/10/14 02:07:53;;;;;;;;;;;;;;;-140.72;100.00;58810.09;5074866;28;19950;-70
2023/10/14 02:10:20;;;;;;;;;;;;;;;-140.72;100.00;58769.44;5070761;28;19925;-70
2023/10/14 02:12:45;;;;;;;;;;;;;;;-140.72;100.00;58755.22;5070975;28;19924;-70
2023/10/14 02:15:11;;;;;;;;;;;;;;;-140.72;100.00;58777.56;5076539;28;19920;-70
2023/10/14 02:17:36;;;;;;;;;;;;;;;-140.72;100.00;58765.38;5074981;28;19931;-70
2023/10/14 02:20:19;;;;;;;;;;;;;;;-140.72;100.00;58785.72;5075790;28;19927;-70
2023/10/14 02:22:45;;;;;;;;;;;;;;;-140.72;100.00;58820.25;5067999;28;19928;-70
2023/10/14 02:25:12;;;;;;;;;;;;;;;-140.72;100.00;58789.78;5076676;28;20333;-70
2023/10/14 02:27:42;;;;;;;;;;;;;;;-140.72;100.00;58814.16;5071330;28;19920;-70
2023/10/14 02:30:08;;;;;;;;;;;;;;;-140.72;100.00;58734.91;5073207;28;19920;-70
2023/10/14 02:32:34;;;;;;;;;;;;;;;-140.72;100.00;58763.34;5076956;28;20011;-70
2023/10/14 02:34:59;;;;;;;;;;;;;;;-140.72;100.00;58767.41;5071033;28;19921;-70
2023/10/14 02:37:26;;;;;;;;;;;;;;;-140.72;100.00;58761.31;5075481;28;19927;-70
2023/10/14 02:39:51;;;;;;;;;;;;;;;-140.72;100.00;58783.66;5075310;28;19920;-70
2023/10/14 02:42:17;;;;;;;;;;;;;;;-140.72;100.00;58818.22;5072472;28;20444;-70
2023/10/14 02:45:15;;;;;;;;;;;;;;;-140.72;100.00;58757.25;5069681;28;19920;-70
2023/10/14 02:47:37;;;;;;;;;;;;;;;-140.72;100.00;58649.53;5073666;28;19947;-70
2023/10/14 02:50:08;;;;;;;;;;;;;;;-140.72;100.00;58554.03;5075090;28;19931;-70
2023/10/14 02:52:38;;;;;;;;;;;;;;;-140.72;100.00;58495.09;5072646;28;19925;-70
2023/10/14 02:55:23;;;;;;;;;;;;;;;-140.72;100.00;58511.34;5070852;28;19927;-70
2023/10/14 02:57:48;;;;;;;;;;;;;;;-140.72;100.00;58438.19;5073130;28;20438;-70
2023/10/14 03:00:32;;;;;;;;;;;;;;;-140.72;100.00;58334.53;5072299;28;20000;-71
2023/10/14 03:03:12;;;;;;;;;;;;;;;-140.72;100.00;58214.66;5072672;28;20011;-70
2023/10/14 03:05:50;;;;;;;;;;;;;;;-140.72;100.00;58133.38;5068415;28;20383;-70
2023/10/14 03:08:17;;;;;;;;;;;;;;;-140.72;100.00;58157.75;5071206;28;20070;-70
2023/10/14 03:10:45;;;;;;;;;;;;;;;-140.72;100.00;58180.09;5069705;28;19927;-70
2023/10/14 03:13:14;;;;;;;;;;;;;;;-140.72;100.00;58068.34;5069928;28;19920;-70
2023/10/14 03:15:39;;;;;;;;;;;;;;;-140.72;100.00;58003.31;5068739;28;19959;-70
2023/10/14 03:18:06;;;;;;;;;;;;;;;-140.72;100.00;58021.59;5067507;28;19963;-70
2023/10/14 03:22:59;;;;;;;;;;;;;;;-140.72;100.00;57861.06;5075323;28;19921;-70
2023/10/14 03:25:24;;;;;;;;;;;;;;;-140.72;100.00;57838.72;5075682;28;20370;-70
2023/10/14 03:27:50;;;;;;;;;;;;;;;-140.72;100.00;57911.88;5071569;28;20015;-71
2023/10/14 03:30:17;;;;;;;;;;;;;;;-140.72;100.00;57909.84;5071481;28;19920;-70
2023/10/14 03:32:42;;;;;;;;;;;;;;;-140.72;100.00;57954.53;5073027;28;20906;-70
2023/10/14 03:35:13;;;;;;;;;;;;;;;-140.72;100.00;57877.34;5066358;28;20015;-70
2023/10/14 03:37:44;;;;;;;;;;;;;;;-140.72;100.00;57735.09;5073509;28;19950;-70
2023/10/14 03:42:54;;;;;;;;;;;;;;;-140.72;100.00;57454.72;5074423;28;20038;-70
2023/10/14 03:45:28;;;;;;;;;;;;;;;-140.72;100.00;57326.72;5077156;28;19959;-70
2023/10/14 03:47:59;;;;;;;;;;;;;;;-140.72;100.00;57359.22;5071918;28;20014;-70
2023/10/14 03:50:25;;;;;;;;;;;;;;;-140.72;100.00;57389.69;5066468;28;19921;-70
2023/10/14 03:52:52;;;;;;;;;;;;;;;-140.72;100.00;57454.72;5064557;28;20303;-70
2023/10/14 03:55:24;;;;;;;;;;;;;;;-140.72;100.00;57440.50;5072136;28;19931;-70
2023/10/14 03:57:51;;;;;;;;;;;;;;;-140.72;100.00;57442.53;5075462;28;20205;-70
2023/10/14 04:00:25;;;;;;;;;;;;;;;-140.72;100.00;57558.34;5068095;28;19929;-70
2023/10/14 04:02:50;;;;;;;;;;;;;;;-140.72;100.00;57546.13;5068931;28;20058;-70
2023/10/14 04:05:19;;;;;;;;;;;;;;;-140.72;100.00;57621.31;5069448;28;19968;-70
2023/10/14 04:07:44;;;;;;;;;;;;;;;-140.72;100.00;57649.75;5071761;28;20262;-70
2023/10/14 04:10:11;;;;;;;;;;;;;;;-140.72;100.00;57649.75;5075305;28;19917;-70
2023/10/14 04:12:37;;;;;;;;;;;;;;;-140.72;100.00;57680.25;5061735;28;20436;-70
2023/10/14 04:15:15;;;;;;;;;;;;;;;-140.72;100.00;57678.22;5071338;28;19920;-70
2023/10/14 04:17:40;;;;;;;;;;;;;;;-140.72;100.00;57623.34;5075043;28;19917;-70
2023/10/14 04:22:44;;;;;;;;;;;;;;;-140.72;100.00;57548.16;5071411;28;20289;-70
2023/10/14 04:25:19;;;;;;;;;;;;;;;-140.72;100.00;57564.44;5072677;28;19921;-70
2023/10/14 04:27:45;;;;;;;;;;;;;;;-140.72;100.00;57489.25;5061552;28;20256;-70
2023/10/14 04:35:23;;;;;;;;;;;;;;;-140.72;100.00;57312.50;5073473;28;19971;-69
2023/10/14 04:37:51;;;;;;;;;;;;;;;-140.72;100.00;57245.44;5064901;28;19921;-70
2023/10/14 04:42:58;;;;;;;;;;;;;;;-140.72;100.00;57328.75;5067040;28;19921;-70
2023/10/14 04:45:30;;;;;;;;;;;;;;;-140.72;100.00;57273.91;5068622;28;19921;-70
2023/10/14 04:47:57;;;;;;;;;;;;;;;-140.72;100.00;57314.53;5074067;28;19920;-70
2023/10/14 04:50:23;;;;;;;;;;;;;;;-140.72;100.00;57371.41;5069149;28;20294;-73
2023/10/14 04:52:48;;;;;;;;;;;;;;;-140.72;100.00;57493.31;5071688;28;19920;-74
2023/10/14 04:58:11;;;;;;;;;;;;;;;-140.72;100.00;57410.00;5068547;28;19920;-73
2023/10/14 05:00:43;;;;;;;;;;;;;;;-140.72;100.00;57477.06;5065610;28;20321;-73
2023/10/14 05:03:19;;;;;;;;;;;;;;;-140.72;100.00;57499.41;5073080;28;19970;-73
2023/10/14 05:05:57;;;;;;;;;;;;;;;-140.72;100.00;57552.22;5070129;28;19966;-73
2023/10/14 05:08:44;;;;;;;;;;;;;;;-140.72;100.00;57550.19;5061842;28;20271;-73
2023/10/14 05:11:12;;;;;;;;;;;;;;;-140.72;100.00;57611.16;5072297;28;19927;-73
2023/10/14 05:13:39;;;;;;;;;;;;;;;-140.72;100.00;57590.84;5068415;28;19920;-73
2023/10/14 05:16:26;;;;;;;;;;;;;;;-140.72;100.00;57511.59;5071775;28;19927;-73
2023/10/14 05:21:43;;;;;;;;;;;;;;;-140.72;100.00;57507.53;5068102;28;20003;-73
2023/10/14 05:24:09;;;;;;;;;;;;;;;-140.72;100.00;57533.94;5067657;28;19920;-72
2023/10/14 05:26:44;;;;;;;;;;;;;;;-140.72;100.00;57385.63;5069951;28;19920;-73
2023/10/14 05:29:19;;;;;;;;;;;;;;;-140.72;100.00;57251.53;5069443;28;19920;-73
2023/10/14 05:31:48;;;;;;;;;;;;;;;-140.72;100.00;57123.56;5061934;28;19921;-71
2023/10/14 05:34:17;;;;;;;;;;;;;;;-140.72;100.00;57007.75;5076991;28;20366;-71
2023/10/14 05:36:43;;;;;;;;;;;;;;;-140.72;100.00;56932.59;5072192;28;19921;-71
2023/10/14 05:39:10;;;;;;;;;;;;;;;-140.72;100.00;56967.13;5071788;28;19962;-71
2023/10/14 05:41:36;;;;;;;;;;;;;;;-140.72;100.00;56835.09;5069860;28;19950;-73
2023/10/14 05:44:04;;;;;;;;;;;;;;;-140.72;100.00;56853.38;5070792;28;19920;-72
2023/10/14 05:46:29;;;;;;;;;;;;;;;-140.72;100.00;56839.16;5069570;28;19920;-77
2023/10/14 05:48:54;;;;;;;;;;;;;;;-140.72;100.00;56920.41;5069399;28;19928;-73
2023/10/14 05:51:20;;;;;;;;;;;;;;;-140.72;100.00;57048.38;5075603;28;19928;-73
2023/10/14 05:53:48;;;;;;;;;;;;;;;-140.72;100.00;57143.88;5071634;28;20020;-70
2023/10/14 05:56:16;;;;;;;;;;;;;;;-140.72;100.00;57267.81;5074064;28;19920;-70
2023/10/14 05:58:42;;;;;;;;;;;;;;;-140.72;100.00;57251.53;5072742;28;20436;-70
2023/10/14 06:01:08;;;;;;;;;;;;;;;-140.72;100.00;57294.22;5072381;28;19920;-70
2023/10/14 06:03:34;;;;;;;;;;;;;;;-140.72;100.00;57180.44;5070706;28;19928;-70
2023/10/14 06:06:02;;;;;;;;;;;;;;;-140.72;100.00;57154.03;5072914;28;19921;-70
2023/10/14 06:08:27;;;;;;;;;;;;;;;-140.72;100.00;57166.22;5077247;28;20777;-70
2023/10/14 06:10:53;;;;;;;;;;;;;;;-140.72;100.00;57084.97;5071498;28;20008;-70
2023/10/14 06:13:19;;;;;;;;;;;;;;;-140.72;100.00;56993.53;5076166;28;19951;-70
2023/10/14 06:15:45;;;;;;;;;;;;;;;-140.72;100.00;56993.53;5076336;28;20410;-70
2023/10/14 06:18:17;;;;;;;;;;;;;;;-140.72;100.00;56910.25;5073468;28;19920;-70
2023/10/14 06:20:42;;;;;;;;;;;;;;;-140.72;100.00;56906.19;5083399;28;19965;-69
2023/10/14 06:23:08;;;;;;;;;;;;;;;-140.72;100.00;56902.13;5078738;28;20391;-69
2023/10/14 06:25:34;;;;;;;;;;;;;;;-140.72;100.00;56867.59;5076806;28;20276;-69
2023/10/14 06:28:03;;;;;;;;;;;;;;;-140.72;100.00;56932.59;5076889;28;19927;-70
2023/10/14 06:30:28;;;;;;;;;;;;;;;-140.72;100.00;56940.72;5074802;28;19925;-70
2023/10/14 06:33:15;;;;;;;;;;;;;;;-140.72;100.00;56924.47;5078511;28;19924;-70
2023/10/14 06:35:42;;;;;;;;;;;;;;;-140.72;100.00;56891.97;5075713;28;19956;-70
2023/10/14 06:38:11;;;;;;;;;;;;;;;-140.72;100.00;56906.19;5075161;28;19923;-69
2023/10/14 06:40:37;;;;;;;;;;;;;;;-140.72;100.00;56859.47;5069945;28;19963;-70
2023/10/14 06:43:06;;;;;;;;;;;;;;;-140.72;100.00;56853.38;5076960;28;19920;-69
2023/10/14 06:45:32;;;;;;;;;;;;;;;-140.72;100.00;56782.28;5072299;28;19920;-70
2023/10/14 06:47:58;;;;;;;;;;;;;;;-140.72;100.00;56796.50;5070354;28;19981;-70
2023/10/14 06:50:26;;;;;;;;;;;;;;;-140.72;100.00;56737.59;5075501;28;19928;-70
2023/10/14 06:52:57;;;;;;;;;;;;;;;-140.72;100.00;56717.28;5070013;28;21467;-70
2023/10/14 06:55:22;;;;;;;;;;;;;;;-140.72;100.00;56731.50;5071032;28;20381;-75
2023/10/14 06:57:51;;;;;;;;;;;;;;;-140.72;100.00;56699.00;5074019;28;19932;-69
2023/10/14 07:00:22;;;;;;;;;;;;;;;-140.72;100.00;56674.63;5075079;28;19969;-70
2023/10/14 07:02:51;;;;;;;;;;;;;;;-140.72;100.00;56636.00;5076764;28;19960;-72
2023/10/14 07:05:19;;;;;;;;;;;;;;;-140.72;100.00;56585.22;5075839;28;19931;-70
2023/10/14 07:07:44;;;;;;;;;;;;;;;-140.72;100.00;56664.47;5071544;28;19921;-71
2023/10/14 07:10:10;;;;;;;;;;;;;;;-140.72;100.00;56597.44;5072353;28;19920;-72
2023/10/14 07:12:37;;;;;;;;;;;;;;;-140.72;100.00;56609.63;5074532;28;19974;-70
2023/10/14 07:15:05;;;;;;;;;;;;;;;-140.72;100.00;56662.41;5070483;28;19921;-70
2023/10/14 07:17:30;;;;;;;;;;;;;;;-140.72;100.00;56589.28;5072896;28;19921;-69
2023/10/14 07:19:56;;;;;;;;;;;;;;;-140.72;100.00;56581.16;5075618;28;19932;-69
2023/10/14 07:22:21;;;;;;;;;;;;;;;-140.72;100.00;56585.22;5071763;28;20424;-69
2023/10/14 07:24:47;;;;;;;;;;;;;;;-140.72;100.00;56538.50;5074937;28;19928;-69
2023/10/14 07:27:13;;;;;;;;;;;;;;;-140.72;100.00;56560.84;5076177;28;20015;-70
2023/10/14 07:29:39;;;;;;;;;;;;;;;-140.72;100.00;56566.94;5073501;28;20059;-69
2023/10/14 07:32:05;;;;;;;;;;;;;;;-140.72;100.00;56542.56;5076961;28;19929;-69
2023/10/14 07:34:30;;;;;;;;;;;;;;;-140.72;100.00;56497.88;5075688;28;19943;-69
2023/10/14 07:36:55;;;;;;;;;;;;;;;-140.72;100.00;56471.50;5073366;28;19936;-70
2023/10/14 07:39:29;;;;;;;;;;;;;;;-140.72;100.00;56471.50;5071795;28;20295;-70
2023/10/14 07:41:55;;;;;;;;;;;;;;;-140.72;100.00;56443.06;5073788;28;19928;-69
2023/10/14 07:44:22;;;;;;;;;;;;;;;-140.72;100.00;56321.19;5072080;28;19921;-72
2023/10/14 07:46:48;;;;;;;;;;;;;;;-140.72;100.00;56278.53;5074975;28;19927;-69
2023/10/14 07:49:14;;;;;;;;;;;;;;;-140.72;100.00;56093.69;5074539;28;19928;-69
2023/10/14 07:51:39;;;;;;;;;;;;;;;-140.72;100.00;56079.47;5070778;28;20442;-69
2023/10/14 07:54:06;;;;;;;;;;;;;;;-140.72;100.00;55959.66;5069871;28;20394;-70
2023/10/14 07:56:32;;;;;;;;;;;;;;;-140.72;100.00;55939.34;5073877;28;19920;-70
2023/10/14 07:58:57;;;;;;;;;;;;;;;-140.72;100.00;55906.84;5067694;28;19932;-69
2023/10/14 08:01:23;;;;;;;;;;;;;;;-140.72;100.00;55876.38;5073414;28;19921;-72
2023/10/14 08:03:48;;;;;;;;;;;;;;;-140.72;100.00;55862.16;5069804;28;19970;-71
2023/10/14 08:06:17;;;;;;;;;;;;;;;-140.72;100.00;55813.44;5064142;28;20008;-69
2023/10/14 08:08:47;;;;;;;;;;;;;;;-140.72;100.00;55687.50;5074156;28;19967;-69
2023/10/14 08:11:12;;;;;;;;;;;;;;;-140.72;100.00;55585.97;5074151;28;20367;-69
2023/10/14 08:13:38;;;;;;;;;;;;;;;-140.72;100.00;55533.19;5072816;28;19986;-69
2023/10/14 08:16:07;;;;;;;;;;;;;;;-140.72;100.00;55484.44;5072313;28;19957;-69
2023/10/14 08:18:33;;;;;;;;;;;;;;;-140.72;100.00;55354.47;5071388;28;19928;-69
2023/10/14 08:20:59;;;;;;;;;;;;;;;-140.72;100.00;55322.00;5071843;28;19920;-69
2023/10/14 08:23:25;;;;;;;;;;;;;;;-140.72;100.00;55311.84;5067135;28;20012;-74
2023/10/14 08:25:57;;;;;;;;;;;;;;;-140.72;100.00;55257.00;5073483;28;20382;-71
2023/10/14 08:28:27;;;;;;;;;;;;;;;-140.72;100.00;55137.22;5070267;28;19979;-71
2023/10/14 08:30:52;;;;;;;;;;;;;;;-140.72;100.00;55090.50;5062945;28;19928;-72
2023/10/14 08:33:19;;;;;;;;;;;;;;;-140.72;100.00;55003.19;5069256;28;19921;-70
2023/10/14 08:35:48;;;;;;;;;;;;;;;-140.72;100.00;55001.16;5074758;28;20005;-73
2023/10/14 08:38:14;;;;;;;;;;;;;;;-140.72;100.00;54950.41;5073181;28;20055;-72
2023/10/14 08:40:49;;;;;;;;;;;;;;;-140.72;100.00;54966.66;5076880;28;19929;-74
2023/10/14 08:43:17;;;;;;;;;;;;;;;-140.72;100.00;55033.66;5069666;28;20322;-74
2023/10/14 08:45:47;;;;;;;;;;;;;;;-140.72;100.00;54936.19;5067498;28;20438;-72
2023/10/14 08:48:14;;;;;;;;;;;;;;;-140.72;100.00;55009.28;5068096;28;20456;-71
2023/10/14 08:50:40;;;;;;;;;;;;;;;-140.72;100.00;55005.22;5067377;28;19924;-70
2023/10/14 08:53:07;;;;;;;;;;;;;;;-140.72;100.00;55023.50;5072075;28;19927;-70
2023/10/14 08:55:33;;;;;;;;;;;;;;;-140.72;100.00;55015.38;5068572;28;19921;-70
2023/10/14 08:58:01;;;;;;;;;;;;;;;-140.72;100.00;54984.91;5072748;28;19990;-70
2023/10/14 09:00:29;;;;;;;;;;;;;;;-140.72;100.00;54997.09;5068143;28;19929;-70
2023/10/14 09:02:54;;;;;;;;;;;;;;;-140.72;100.00;55013.34;5073201;28;19921;-70
2023/10/14 09:05:20;;;;;;;;;;;;;;;-140.72;100.00;54887.47;5069978;28;19967;-70
2023/10/14 09:07:46;;;;;;;;;;;;;;;-140.72;100.00;54899.66;5070794;28;19925;-70
2023/10/14 09:10:12;;;;;;;;;;;;;;;-140.72;100.00;54818.44;5071594;28;20371;-70
2023/10/14 09:12:37;;;;;;;;;;;;;;;-140.72;100.00;54725.03;5066468;28;19928;-70
2023/10/14 09:15:03;;;;;;;;;;;;;;;-140.72;100.00;54749.41;5059943;28;20428;-70
2023/10/14 09:17:28;;;;;;;;;;;;;;;-140.72;100.00;54747.38;5068172;28;19921;-70
2023/10/14 09:19:54;;;;;;;;;;;;;;;-140.72;100.00;54692.53;5070297;28;19934;-70
2023/10/14 09:22:33;;;;;;;;;;;;;;;-140.72;100.00;54698.63;5072863;28;19929;-70
2023/10/14 09:24:59;;;;;;;;;;;;;;;-140.72;100.00;54761.56;5061643;28;19928;-70
2023/10/14 09:27:26;;;;;;;;;;;;;;;-140.72;100.00;54672.25;5069770;28;19927;-70
2023/10/14 09:29:51;;;;;;;;;;;;;;;-140.72;100.00;54678.34;5071290;28;19921;-70
2023/10/14 09:32:17;;;;;;;;;;;;;;;-140.72;100.00;54639.75;5066581;28;19916;-70
2023/10/14 09:34:42;;;;;;;;;;;;;;;-140.72;100.00;54647.88;5070646;28;20318;-70
2023/10/14 09:37:13;;;;;;;;;;;;;;;-140.72;100.00;54625.53;5072623;28;19959;-70
2023/10/14 09:39:42;;;;;;;;;;;;;;;-140.72;100.00;54591.03;5067838;28;19971;-71
2023/10/14 09:42:10;;;;;;;;;;;;;;;-140.72;100.00;54550.44;5068265;28;19920;-71
2023/10/14 09:44:39;;;;;;;;;;;;;;;-140.72;100.00;54562.59;5067789;28;20282;-70
2023/10/14 09:47:09;;;;;;;;;;;;;;;-140.72;100.00;54568.69;5065845;28;19920;-74
2023/10/14 09:49:35;;;;;;;;;;;;;;;-140.72;100.00;54544.34;5072614;28;19952;-71
2023/10/14 09:52:01;;;;;;;;;;;;;;;-140.72;100.00;54566.66;5068257;28;20314;-70
2023/10/14 09:54:28;;;;;;;;;;;;;;;-140.72;100.00;54499.66;5068466;28;19929;-70
2023/10/14 09:56:54;;;;;;;;;;;;;;;-140.72;100.00;54546.38;5064377;28;19928;-70
2023/10/14 09:59:21;;;;;;;;;;;;;;;-140.72;100.00;54582.91;5066223;28;19920;-70
2023/10/14 10:01:46;;;;;;;;;;;;;;;-140.72;100.00;54534.19;5072965;28;19920;-70
2023/10/14 10:04:13;;;;;;;;;;;;;;;-140.72;100.00;54497.66;5071443;28;19927;-70
2023/10/14 10:06:49;;;;;;;;;;;;;;;-140.72;100.00;54552.47;5067805;28;19929;-70
2023/10/14 10:09:27;;;;;;;;;;;;;;;-140.72;100.00;54459.06;5072325;28;19927;-70
2023/10/14 10:11:54;;;;;;;;;;;;;;;-140.72;100.00;54079.44;5068161;28;19920;-70
2023/10/14 10:14:20;;;;;;;;;;;;;;;-140.72;100.00;53809.47;5071968;28;20290;-70
2023/10/14 10:16:47;;;;;;;;;;;;;;;-140.72;100.00;53693.78;5072647;28;19925;-70
2023/10/14 10:19:13;;;;;;;;;;;;;;;-140.72;100.00;53638.97;5062433;28;19928;-71
2023/10/14 10:21:40;;;;;;;;;;;;;;;-140.72;100.00;53681.59;5071688;28;19920;-70
2023/10/14 10:24:17;;;;;;;;;;;;;;;-140.72;100.00;53641.00;5072323;28;19928;-70
2023/10/14 10:27:01;;;;;;;;;;;;;;;-140.72;100.00;53494.84;5072583;28;19916;-70
2023/10/14 10:29:27;;;;;;;;;;;;;;;-140.72;100.00;53515.16;5071243;28;19924;-70
2023/10/14 10:32:05;;;;;;;;;;;;;;;-140.72;100.00;53446.13;5074622;28;19999;-70
2023/10/14 10:34:33;;;;;;;;;;;;;;;-140.72;100.00;53456.28;5073431;28;19932;-70
2023/10/14 10:36:59;;;;;;;;;;;;;;;-140.72;100.00;53468.47;5070553;28;19973;-70
2023/10/14 10:39:24;;;;;;;;;;;;;;;-140.72;100.00;53421.78;5075517;28;20434;-70
2023/10/14 10:41:50;;;;;;;;;;;;;;;-140.72;100.00;53352.78;5076204;28;19920;-70
2023/10/14 10:44:16;;;;;;;;;;;;;;;-140.72;100.00;52825.13;5074331;28;19920;-70
2023/10/14 10:46:54;;;;;;;;;;;;;;;-140.72;100.00;52829.19;5072947;28;19920;-70
2023/10/14 10:49:38;;;;;;;;;;;;;;;-140.72;100.00;52827.16;5068529;28;19925;-70
2023/10/14 10:52:16;;;;;;;;;;;;;;;-140.72;100.00;52812.94;5075624;28;20012;-70
2023/10/14 10:54:42;;;;;;;;;;;;;;;-140.72;100.00;52819.03;5067575;28;19921;-70
2023/10/14 10:57:07;;;;;;;;;;;;;;;-140.72;0.00;52772.34;5068389;28;19942;-70
2023/10/14 10:59:32;;;;;;;;;;;;;;;-140.72;0.00;52735.81;5071074;28;19921;-70
2023/10/14 11:01:58;;;;;;;;;;;;;;;-140.72;0.00;52703.34;5073357;28;19921;-70
2023/10/14 11:04:23;;;;;;;;;;;;;;;-140.72;0.00;52662.78;5075045;28;20006;-71
2023/10/14 11:06:51;;;;;;;;;;;;;;;-140.72;0.00;52650.59;5073437;28;19921;-71
2023/10/14 11:09:17;;;;;;;;;;;;;;;-140.72;0.00;52628.28;5072746;28;19931;-70
2023/10/14 11:11:42;;;;;;;;;;;;;;;-140.72;0.00;52729.75;5072050;28;19920;-71
2023/10/14 11:14:20;;;;;;;;;;;;;;;-140.72;0.00;52857.59;5068888;28;19920;-68
2023/10/14 11:16:52;;;;;;;;;;;;;;;-140.72;0.00;52784.53;5068271;28;20007;-70
2023/10/14 11:19:20;;;;;;;;;;;;;;;-140.72;0.00;52754.09;5072101;28;20268;-70
2023/10/14 11:21:45;;;;;;;;;;;;;;;-140.72;0.00;52705.38;5067810;28;19947;-70
2023/10/14 11:24:10;;;;;;;;;;;;;;;-140.72;0.00;52634.38;5070182;28;20367;-70
2023/10/14 11:26:37;;;;;;;;;;;;;;;-140.72;0.00;52646.53;5074727;28;19924;-70
2023/10/14 11:29:03;;;;;;;;;;;;;;;-140.72;0.00;52695.25;5075154;28;19916;-70
2023/10/14 11:31:30;;;;;;;;;;;;;;;-140.72;0.00;52674.94;5074103;28;20084;-70
2023/10/14 11:33:59;;;;;;;;;;;;;;;-140.72;0.00;52679.00;5075759;28;20011;-71
2023/10/14 11:36:25;;;;;;;;;;;;;;;-140.72;0.00;52790.63;5074148;28;19920;-70
2023/10/14 11:38:50;;;;;;;;;;;;;;;-140.72;0.00;52780.47;5074441;28;19921;-70
2023/10/14 11:41:17;;;;;;;;;;;;;;;-140.72;0.00;52697.28;5070012;28;19971;-70
2023/10/14 11:43:43;;;;;;;;;;;;;;;-140.72;0.00;52616.09;5071386;28;20351;-71
2023/10/14 11:46:08;;;;;;;;;;;;;;;-140.72;0.00;52565.38;5062613;28;19956;-71
2023/10/14 11:48:33;;;;;;;;;;;;;;;-140.72;0.00;52565.38;5072334;28;19920;-70
2023/10/14 11:51:00;;;;;;;;;;;;;;;-140.72;0.00;52547.09;5068219;28;19920;-69
2023/10/14 11:53:27;;;;;;;;;;;;;;;-140.72;0.00;52500.44;5074414;28;19920;-69
2023/10/14 11:55:53;;;;;;;;;;;;;;;-140.72;0.00;52524.78;5072706;28;19920;-69
2023/10/14 11:58:19;;;;;;;;;;;;;;;-140.72;0.00;52557.25;5075069;28;20366;-69
2023/10/14 12:00:44;;;;;;;;;;;;;;;-140.72;0.00;52646.53;5069731;28;19928;-69
2023/10/14 12:03:11;;;;;;;;;;;;;;;-140.72;0.00;52618.13;5071413;28;19928;-70
2023/10/14 12:05:39;;;;;;;;;;;;;;;-140.72;0.00;52557.25;5071659;28;20247;-69
2023/10/14 12:08:07;;;;;;;;;;;;;;;-140.72;0.00;52494.34;5073157;28;19920;-70
2023/10/14 12:10:33;;;;;;;;;;;;;;;-140.72;0.00;52557.25;5071703;28;20015;-70
2023/10/14 12:12:59;;;;;;;;;;;;;;;-140.72;0.00;52455.78;5071413;28;19920;-70
2023/10/14 12:15:24;;;;;;;;;;;;;;;-140.72;0.00;52508.56;5071516;28;19966;-70
2023/10/14 12:17:50;;;;;;;;;;;;;;;-140.72;0.00;52453.75;5071394;28;20322;-70
2023/10/14 12:20:15;;;;;;;;;;;;;;;-140.72;0.00;52388.84;5069302;28;19920;-69
2023/10/14 12:22:41;;;;;;;;;;;;;;;-140.72;0.00;52323.91;5074650;28;19966;-70
2023/10/14 12:25:07;;;;;;;;;;;;;;;-140.72;0.00;52463.91;5071028;28;20378;-71
2023/10/14 12:27:33;;;;;;;;;;;;;;;-140.72;0.00;52593.78;5072731;28;19944;-71
2023/10/14 12:30:00;;;;;;;;;;;;;;;-140.72;0.00;52707.41;5066039;28;19920;-70
2023/10/14 12:32:31;;;;;;;;;;;;;;;-140.72;0.00;52715.53;5073233;28;19981;-70
2023/10/14 12:34:58;;;;;;;;;;;;;;;-140.72;0.00;52752.06;5073334;28;19973;-69
2023/10/14 12:37:24;;;;;;;;;;;;;;;-140.72;0.00;52597.84;5073101;28;19928;-69
2023/10/14 12:39:55;;;;;;;;;;;;;;;-140.72;0.00;52524.78;5066308;28;19920;-69
2023/10/14 12:42:23;;;;;;;;;;;;;;;-140.72;0.00;52455.78;5072445;28;19920;-70
2023/10/14 12:44:49;;;;;;;;;;;;;;;-140.72;0.00;52494.34;5071480;28;19921;-70
2023/10/14 12:47:15;;;;;;;;;;;;;;;-140.72;0.00;52429.41;5073067;28;20254;-70
2023/10/14 12:49:40;;;;;;;;;;;;;;;-140.72;0.00;52431.44;5066969;28;19928;-70
2023/10/14 12:52:12;;;;;;;;;;;;;;;-140.72;0.00;52577.53;5062731;28;19947;-69
2023/10/14 12:54:49;;;;;;;;;;;;;;;-140.72;0.00;52664.81;5070678;28;19920;-70